Terminal Aerodrome Forecast
Issued by NWS

Home | Current Version | Previous Version | Text Only | Print | Product List | Glossary On
Versions: 1 2 3 4 5 6 7 8 9 10 11 12 13
000
FTUS44 KEPZ 270500
TAFLRU
TAF
KLRU 270537Z 2706/2806 13010KT P6SM FEW020 BKN200
     FM271000 13008KT P6SM SCT020 SCT200
      TEMPO 2710/2713 BKN020
     FM280400 16008KT P6SM FEW030 SCT150 SCT250=

USA.gov is the U.S. government's official web portal to all federal, state and local government web resources and services.